sensor_id;sensor_type;location;lat;lon;timestamp;P1;durP1;ratioP1;P2;durP2;ratioP2
71166;SDS011;58864;45.928;20.078;2023-04-03T00:00:51;10.50;;;4.03;;
71166;SDS011;58864;45.928;20.078;2023-04-03T00:03:16;11.23;;;3.97;;
71166;SDS011;58864;45.928;20.078;2023-04-03T00:05:41;9.05;;;3.90;;
71166;SDS011;58864;45.928;20.078;2023-04-03T00:08:05;9.83;;;4.10;;
71166;SDS011;58864;45.928;20.078;2023-04-03T00:10:31;11.25;;;4.38;;
71166;SDS011;58864;45.928;20.078;2023-04-03T00:12:56;10.00;;;4.20;;
71166;SDS011;58864;45.928;20.078;2023-04-03T00:15:20;12.33;;;4.80;;
71166;SDS011;58864;45.928;20.078;2023-04-03T00:17:45;11.40;;;4.65;;
71166;SDS011;58864;45.928;20.078;2023-04-03T00:20:09;10.90;;;3.80;;
71166;SDS011;58864;45.928;20.078;2023-04-03T00:22:34;10.03;;;4.57;;
71166;SDS011;58864;45.928;20.078;2023-04-03T00:24:59;11.43;;;4.00;;
71166;SDS011;58864;45.928;20.078;2023-04-03T00:27:23;9.90;;;3.97;;
71166;SDS011;58864;45.928;20.078;2023-04-03T00:29:48;10.77;;;4.40;;
71166;SDS011;58864;45.928;20.078;2023-04-03T00:32:12;9.67;;;4.07;;
71166;SDS011;58864;45.928;20.078;2023-04-03T00:34:37;10.82;;;4.13;;
71166;SDS011;58864;45.928;20.078;2023-04-03T00:37:01;10.50;;;4.43;;
71166;SDS011;58864;45.928;20.078;2023-04-03T00:39:26;12.50;;;4.80;;
71166;SDS011;58864;45.928;20.078;2023-04-03T00:41:51;11.75;;;5.18;;
71166;SDS011;58864;45.928;20.078;2023-04-03T00:44:23;10.83;;;4.37;;
71166;SDS011;58864;45.928;20.078;2023-04-03T00:47:07;11.18;;;4.25;;
71166;SDS011;58864;45.928;20.078;2023-04-03T00:49:34;11.27;;;4.00;;
71166;SDS011;58864;45.928;20.078;2023-04-03T00:52:00;14.52;;;4.60;;
71166;SDS011;58864;45.928;20.078;2023-04-03T00:54:25;9.40;;;3.67;;
71166;SDS011;58864;45.928;20.078;2023-04-03T00:56:50;10.75;;;3.90;;
71166;SDS011;58864;45.928;20.078;2023-04-03T00:59:16;8.68;;;3.63;;
71166;SDS011;58864;45.928;20.078;2023-04-03T01:01:47;8.17;;;3.13;;
71166;SDS011;58864;45.928;20.078;2023-04-03T01:04:28;9.00;;;3.15;;
71166;SDS011;58864;45.928;20.078;2023-04-03T01:06:54;8.13;;;3.10;;
71166;SDS011;58864;45.928;20.078;2023-04-03T01:09:19;8.18;;;2.78;;
71166;SDS011;58864;45.928;20.078;2023-04-03T01:11:44;8.03;;;3.10;;
71166;SDS011;58864;45.928;20.078;2023-04-03T01:14:09;11.15;;;4.63;;
71166;SDS011;58864;45.928;20.078;2023-04-03T01:16:33;13.60;;;5.37;;
71166;SDS011;58864;45.928;20.078;2023-04-03T01:18:58;15.82;;;6.00;;
71166;SDS011;58864;45.928;20.078;2023-04-03T01:21:47;13.02;;;5.30;;
71166;SDS011;58864;45.928;20.078;2023-04-03T01:24:34;13.97;;;6.07;;
71166;SDS011;58864;45.928;20.078;2023-04-03T01:27:00;12.95;;;5.60;;
71166;SDS011;58864;45.928;20.078;2023-04-03T01:29:25;15.30;;;6.20;;
71166;SDS011;58864;45.928;20.078;2023-04-03T01:31:51;13.32;;;5.82;;
71166;SDS011;58864;45.928;20.078;2023-04-03T01:34:17;10.88;;;4.22;;
71166;SDS011;58864;45.928;20.078;2023-04-03T01:36:41;10.43;;;4.27;;
71166;SDS011;58864;45.928;20.078;2023-04-03T01:39:06;9.63;;;3.92;;
71166;SDS011;58864;45.928;20.078;2023-04-03T01:41:31;10.10;;;3.00;;
71166;SDS011;58864;45.928;20.078;2023-04-03T01:43:56;11.82;;;2.67;;
71166;SDS011;58864;45.928;20.078;2023-04-03T01:46:21;7.67;;;3.10;;
71166;SDS011;58864;45.928;20.078;2023-04-03T01:48:45;6.95;;;2.13;;
71166;SDS011;58864;45.928;20.078;2023-04-03T01:51:10;8.30;;;2.20;;
71166;SDS011;58864;45.928;20.078;2023-04-03T01:53:35;8.07;;;2.45;;
71166;SDS011;58864;45.928;20.078;2023-04-03T01:55:59;6.57;;;2.17;;
71166;SDS011;58864;45.928;20.078;2023-04-03T01:58:24;6.03;;;2.03;;
71166;SDS011;58864;45.928;20.078;2023-04-03T02:00:48;6.43;;;2.00;;
71166;SDS011;58864;45.928;20.078;2023-04-03T02:03:13;7.63;;;2.50;;
71166;SDS011;58864;45.928;20.078;2023-04-03T02:05:37;8.70;;;2.73;;
71166;SDS011;58864;45.928;20.078;2023-04-03T02:08:02;6.38;;;2.20;;
71166;SDS011;58864;45.928;20.078;2023-04-03T02:10:26;7.33;;;2.10;;
71166;SDS011;58864;45.928;20.078;2023-04-03T02:12:51;6.85;;;2.00;;
71166;SDS011;58864;45.928;20.078;2023-04-03T02:15:15;6.87;;;2.00;;
71166;SDS011;58864;45.928;20.078;2023-04-03T02:17:40;5.68;;;1.65;;
71166;SDS011;58864;45.928;20.078;2023-04-03T02:20:05;6.47;;;2.20;;
71166;SDS011;58864;45.928;20.078;2023-04-03T02:22:30;6.50;;;1.85;;
71166;SDS011;58864;45.928;20.078;2023-04-03T02:24:54;6.83;;;2.00;;
71166;SDS011;58864;45.928;20.078;2023-04-03T02:27:19;5.93;;;1.80;;
71166;SDS011;58864;45.928;20.078;2023-04-03T02:29:43;6.88;;;2.28;;
71166;SDS011;58864;45.928;20.078;2023-04-03T02:32:08;5.43;;;1.80;;
71166;SDS011;58864;45.928;20.078;2023-04-03T02:34:32;8.80;;;2.53;;
71166;SDS011;58864;45.928;20.078;2023-04-03T02:36:57;5.57;;;1.90;;
71166;SDS011;58864;45.928;20.078;2023-04-03T02:39:21;6.15;;;1.85;;
71166;SDS011;58864;45.928;20.078;2023-04-03T02:41:46;5.90;;;1.90;;
71166;SDS011;58864;45.928;20.078;2023-04-03T02:44:10;7.10;;;1.90;;
71166;SDS011;58864;45.928;20.078;2023-04-03T02:46:35;6.63;;;1.60;;
71166;SDS011;58864;45.928;20.078;2023-04-03T02:48:59;5.60;;;1.80;;
71166;SDS011;58864;45.928;20.078;2023-04-03T02:51:24;6.32;;;1.75;;
71166;SDS011;58864;45.928;20.078;2023-04-03T02:53:49;5.80;;;1.80;;
71166;SDS011;58864;45.928;20.078;2023-04-03T02:56:14;6.00;;;2.08;;
71166;SDS011;58864;45.928;20.078;2023-04-03T02:58:38;7.60;;;1.70;;
71166;SDS011;58864;45.928;20.078;2023-04-03T03:01:03;6.20;;;1.88;;
71166;SDS011;58864;45.928;20.078;2023-04-03T03:03:28;5.07;;;1.48;;
71166;SDS011;58864;45.928;20.078;2023-04-03T03:06:26;4.87;;;1.37;;
71166;SDS011;58864;45.928;20.078;2023-04-03T03:08:44;4.65;;;1.13;;
71166;SDS011;58864;45.928;20.078;2023-04-03T03:11:08;5.50;;;1.43;;
71166;SDS011;58864;45.928;20.078;2023-04-03T03:13:33;4.57;;;1.15;;
71166;SDS011;58864;45.928;20.078;2023-04-03T03:15:58;6.00;;;1.50;;
71166;SDS011;58864;45.928;20.078;2023-04-03T03:18:23;5.18;;;1.30;;
71166;SDS011;58864;45.928;20.078;2023-04-03T03:20:51;5.43;;;1.37;;
71166;SDS011;58864;45.928;20.078;2023-04-03T03:23:19;9.63;;;1.65;;
71166;SDS011;58864;45.928;20.078;2023-04-03T03:25:44;4.63;;;1.20;;
71166;SDS011;58864;45.928;20.078;2023-04-03T03:28:08;5.10;;;1.20;;
71166;SDS011;58864;45.928;20.078;2023-04-03T03:30:33;5.07;;;1.30;;
71166;SDS011;58864;45.928;20.078;2023-04-03T03:32:57;4.72;;;1.27;;
71166;SDS011;58864;45.928;20.078;2023-04-03T03:35:22;4.63;;;1.13;;
71166;SDS011;58864;45.928;20.078;2023-04-03T03:37:46;4.40;;;1.23;;
71166;SDS011;58864;45.928;20.078;2023-04-03T03:40:11;4.07;;;0.90;;
71166;SDS011;58864;45.928;20.078;2023-04-03T03:42:37;6.05;;;0.90;;
71166;SDS011;58864;45.928;20.078;2023-04-03T03:45:01;6.50;;;1.10;;
71166;SDS011;58864;45.928;20.078;2023-04-03T03:47:25;5.57;;;0.87;;
71166;SDS011;58864;45.928;20.078;2023-04-03T03:49:50;3.85;;;1.02;;
71166;SDS011;58864;45.928;20.078;2023-04-03T03:52:14;4.60;;;0.87;;
71166;SDS011;58864;45.928;20.078;2023-04-03T03:54:39;4.83;;;0.80;;
71166;SDS011;58864;45.928;20.078;2023-04-03T03:57:04;5.03;;;0.90;;
71166;SDS011;58864;45.928;20.078;2023-04-03T03:59:29;4.70;;;1.00;;
71166;SDS011;58864;45.928;20.078;2023-04-03T04:01:53;4.80;;;1.10;;
71166;SDS011;58864;45.928;20.078;2023-04-03T04:04:18;3.67;;;0.70;;
71166;SDS011;58864;45.928;20.078;2023-04-03T04:06:42;4.07;;;1.10;;
71166;SDS011;58864;45.928;20.078;2023-04-03T04:09:08;4.15;;;0.88;;
71166;SDS011;58864;45.928;20.078;2023-04-03T04:11:33;5.03;;;0.80;;
71166;SDS011;58864;45.928;20.078;2023-04-03T04:13:57;4.43;;;0.70;;
71166;SDS011;58864;45.928;20.078;2023-04-03T04:16:22;4.27;;;0.80;;
71166;SDS011;58864;45.928;20.078;2023-04-03T04:18:46;5.17;;;0.90;;
71166;SDS011;58864;45.928;20.078;2023-04-03T04:21:11;3.93;;;0.60;;
71166;SDS011;58864;45.928;20.078;2023-04-03T04:23:35;3.23;;;0.70;;
71166;SDS011;58864;45.928;20.078;2023-04-03T04:25:59;5.43;;;0.87;;
71166;SDS011;58864;45.928;20.078;2023-04-03T04:28:24;4.05;;;0.90;;
71166;SDS011;58864;45.928;20.078;2023-04-03T04:30:49;3.83;;;0.70;;
71166;SDS011;58864;45.928;20.078;2023-04-03T04:33:13;4.50;;;0.80;;
71166;SDS011;58864;45.928;20.078;2023-04-03T04:35:38;4.20;;;0.80;;
71166;SDS011;58864;45.928;20.078;2023-04-03T04:38:03;3.58;;;0.75;;
71166;SDS011;58864;45.928;20.078;2023-04-03T04:40:28;3.50;;;0.90;;
71166;SDS011;58864;45.928;20.078;2023-04-03T04:42:52;5.15;;;1.30;;
71166;SDS011;58864;45.928;20.078;2023-04-03T04:45:20;4.47;;;1.08;;
71166;SDS011;58864;45.928;20.078;2023-04-03T04:47:47;2.97;;;0.60;;
71166;SDS011;58864;45.928;20.078;2023-04-03T04:50:11;4.45;;;0.85;;
71166;SDS011;58864;45.928;20.078;2023-04-03T04:52:37;4.60;;;0.95;;
71166;SDS011;58864;45.928;20.078;2023-04-03T04:55:01;3.67;;;0.70;;
71166;SDS011;58864;45.928;20.078;2023-04-03T04:57:26;3.58;;;0.90;;
71166;SDS011;58864;45.928;20.078;2023-04-03T04:59:50;4.67;;;0.80;;
71166;SDS011;58864;45.928;20.078;2023-04-03T05:02:15;3.73;;;0.70;;
71166;SDS011;58864;45.928;20.078;2023-04-03T05:04:39;5.07;;;0.90;;
71166;SDS011;58864;45.928;20.078;2023-04-03T05:07:04;3.67;;;0.80;;
71166;SDS011;58864;45.928;20.078;2023-04-03T05:09:28;3.43;;;0.80;;
71166;SDS011;58864;45.928;20.078;2023-04-03T05:11:56;3.53;;;0.80;;
71166;SDS011;58864;45.928;20.078;2023-04-03T05:14:20;4.70;;;0.80;;
71166;SDS011;58864;45.928;20.078;2023-04-03T05:16:45;3.30;;;0.77;;
71166;SDS011;58864;45.928;20.078;2023-04-03T05:19:09;3.87;;;0.93;;
71166;SDS011;58864;45.928;20.078;2023-04-03T05:21:34;3.20;;;0.77;;
71166;SDS011;58864;45.928;20.078;2023-04-03T05:23:59;3.47;;;0.80;;
71166;SDS011;58864;45.928;20.078;2023-04-03T05:26:26;2.90;;;0.68;;
71166;SDS011;58864;45.928;20.078;2023-04-03T05:28:54;3.40;;;0.60;;
71166;SDS011;58864;45.928;20.078;2023-04-03T05:31:18;5.13;;;1.40;;
71166;SDS011;58864;45.928;20.078;2023-04-03T05:33:43;4.75;;;1.10;;
71166;SDS011;58864;45.928;20.078;2023-04-03T05:36:07;3.57;;;0.80;;
71166;SDS011;58864;45.928;20.078;2023-04-03T05:38:32;5.10;;;0.80;;
71166;SDS011;58864;45.928;20.078;2023-04-03T05:40:57;6.33;;;1.13;;
71166;SDS011;58864;45.928;20.078;2023-04-03T05:43:21;11.37;;;2.33;;
71166;SDS011;58864;45.928;20.078;2023-04-03T05:45:47;6.10;;;1.40;;
71166;SDS011;58864;45.928;20.078;2023-04-03T05:48:11;3.50;;;0.70;;
71166;SDS011;58864;45.928;20.078;2023-04-03T05:50:37;3.10;;;0.57;;
71166;SDS011;58864;45.928;20.078;2023-04-03T05:53:05;3.47;;;0.68;;
71166;SDS011;58864;45.928;20.078;2023-04-03T05:55:29;6.67;;;1.53;;
71166;SDS011;58864;45.928;20.078;2023-04-03T05:57:54;5.40;;;1.10;;
71166;SDS011;58864;45.928;20.078;2023-04-03T06:00:19;4.80;;;1.27;;
71166;SDS011;58864;45.928;20.078;2023-04-03T06:02:43;4.95;;;1.30;;
71166;SDS011;58864;45.928;20.078;2023-04-03T06:05:08;8.30;;;2.40;;
71166;SDS011;58864;45.928;20.078;2023-04-03T06:07:33;5.10;;;1.27;;
71166;SDS011;58864;45.928;20.078;2023-04-03T06:09:58;3.40;;;0.70;;
71166;SDS011;58864;45.928;20.078;2023-04-03T06:12:25;5.43;;;0.93;;
71166;SDS011;58864;45.928;20.078;2023-04-03T06:14:52;5.00;;;0.90;;
71166;SDS011;58864;45.928;20.078;2023-04-03T06:17:17;4.67;;;1.27;;
71166;SDS011;58864;45.928;20.078;2023-04-03T06:19:42;4.43;;;1.10;;
71166;SDS011;58864;45.928;20.078;2023-04-03T06:22:07;4.07;;;1.10;;
71166;SDS011;58864;45.928;20.078;2023-04-03T06:24:31;3.95;;;0.80;;
71166;SDS011;58864;45.928;20.078;2023-04-03T06:26:56;4.73;;;1.10;;
71166;SDS011;58864;45.928;20.078;2023-04-03T06:29:21;5.37;;;1.37;;
71166;SDS011;58864;45.928;20.078;2023-04-03T06:31:46;9.10;;;3.60;;
71166;SDS011;58864;45.928;20.078;2023-04-03T06:34:10;13.87;;;6.60;;
71166;SDS011;58864;45.928;20.078;2023-04-03T06:36:35;78.20;;;29.33;;
71166;SDS011;58864;45.928;20.078;2023-04-03T06:39:00;9.27;;;3.90;;
71166;SDS011;58864;45.928;20.078;2023-04-03T06:41:25;5.43;;;1.70;;
71166;SDS011;58864;45.928;20.078;2023-04-03T06:43:50;4.90;;;1.30;;
71166;SDS011;58864;45.928;20.078;2023-04-03T06:46:15;3.70;;;0.77;;
71166;SDS011;58864;45.928;20.078;2023-04-03T06:48:41;3.30;;;0.85;;
71166;SDS011;58864;45.928;20.078;2023-04-03T06:51:05;3.65;;;0.80;;
71166;SDS011;58864;45.928;20.078;2023-04-03T06:53:30;3.27;;;0.80;;
71166;SDS011;58864;45.928;20.078;2023-04-03T06:55:55;5.93;;;1.10;;
71166;SDS011;58864;45.928;20.078;2023-04-03T06:58:19;3.43;;;0.67;;
71166;SDS011;58864;45.928;20.078;2023-04-03T07:00:44;3.17;;;0.90;;
71166;SDS011;58864;45.928;20.078;2023-04-03T07:03:08;4.03;;;1.08;;
71166;SDS011;58864;45.928;20.078;2023-04-03T07:05:33;3.93;;;0.80;;
71166;SDS011;58864;45.928;20.078;2023-04-03T07:07:57;4.67;;;1.30;;
71166;SDS011;58864;45.928;20.078;2023-04-03T07:10:22;4.73;;;1.17;;
71166;SDS011;58864;45.928;20.078;2023-04-03T07:12:47;3.70;;;0.75;;
71166;SDS011;58864;45.928;20.078;2023-04-03T07:15:11;3.28;;;0.65;;
71166;SDS011;58864;45.928;20.078;2023-04-03T07:17:36;2.73;;;0.57;;
71166;SDS011;58864;45.928;20.078;2023-04-03T07:20:02;4.18;;;0.70;;
71166;SDS011;58864;45.928;20.078;2023-04-03T07:22:27;4.85;;;0.77;;
71166;SDS011;58864;45.928;20.078;2023-04-03T07:24:52;3.50;;;0.80;;
71166;SDS011;58864;45.928;20.078;2023-04-03T07:27:17;3.53;;;0.70;;
71166;SDS011;58864;45.928;20.078;2023-04-03T07:29:42;3.87;;;0.93;;
71166;SDS011;58864;45.928;20.078;2023-04-03T07:32:06;3.60;;;0.80;;
71166;SDS011;58864;45.928;20.078;2023-04-03T07:34:31;3.20;;;0.60;;
71166;SDS011;58864;45.928;20.078;2023-04-03T07:36:56;3.47;;;0.68;;
71166;SDS011;58864;45.928;20.078;2023-04-03T07:39:21;4.75;;;0.80;;
71166;SDS011;58864;45.928;20.078;2023-04-03T07:41:46;3.97;;;0.83;;
71166;SDS011;58864;45.928;20.078;2023-04-03T07:44:10;4.40;;;0.60;;
71166;SDS011;58864;45.928;20.078;2023-04-03T07:46:35;3.47;;;0.60;;
71166;SDS011;58864;45.928;20.078;2023-04-03T07:49:00;3.70;;;0.73;;
71166;SDS011;58864;45.928;20.078;2023-04-03T07:51:24;3.25;;;0.80;;
71166;SDS011;58864;45.928;20.078;2023-04-03T07:53:50;3.60;;;0.60;;
71166;SDS011;58864;45.928;20.078;2023-04-03T07:56:14;4.77;;;0.60;;
71166;SDS011;58864;45.928;20.078;2023-04-03T07:58:39;3.27;;;0.43;;
71166;SDS011;58864;45.928;20.078;2023-04-03T08:01:03;3.45;;;0.68;;
71166;SDS011;58864;45.928;20.078;2023-04-03T08:03:28;3.37;;;0.50;;
71166;SDS011;58864;45.928;20.078;2023-04-03T08:05:52;2.67;;;0.30;;
71166;SDS011;58864;45.928;20.078;2023-04-03T08:08:18;3.47;;;0.80;;
71166;SDS011;58864;45.928;20.078;2023-04-03T08:10:48;2.72;;;0.50;;
71166;SDS011;58864;45.928;20.078;2023-04-03T08:13:16;3.90;;;0.60;;
71166;SDS011;58864;45.928;20.078;2023-04-03T08:15:41;5.73;;;1.07;;
71166;SDS011;58864;45.928;20.078;2023-04-03T08:18:05;3.03;;;0.50;;
71166;SDS011;58864;45.928;20.078;2023-04-03T08:20:30;2.97;;;0.40;;
71166;SDS011;58864;45.928;20.078;2023-04-03T08:22:55;2.45;;;0.45;;
71166;SDS011;58864;45.928;20.078;2023-04-03T08:25:20;3.60;;;0.53;;
71166;SDS011;58864;45.928;20.078;2023-04-03T08:27:45;3.83;;;0.57;;
71166;SDS011;58864;45.928;20.078;2023-04-03T08:30:09;5.00;;;0.70;;
71166;SDS011;58864;45.928;20.078;2023-04-03T08:32:34;3.10;;;0.47;;
71166;SDS011;58864;45.928;20.078;2023-04-03T08:35:00;5.50;;;1.08;;
71166;SDS011;58864;45.928;20.078;2023-04-03T08:37:24;7.57;;;1.20;;
71166;SDS011;58864;45.928;20.078;2023-04-03T08:39:49;3.22;;;0.50;;
71166;SDS011;58864;45.928;20.078;2023-04-03T08:44:47;3.13;;;0.50;;
71166;SDS011;58864;45.928;20.078;2023-04-03T08:49:46;5.18;;;0.55;;
71166;SDS011;58864;45.928;20.078;2023-04-03T08:52:15;2.03;;;0.20;;
71166;SDS011;58864;45.928;20.078;2023-04-03T08:54:48;1.85;;;0.20;;
71166;SDS011;58864;45.928;20.078;2023-04-03T08:57:33;1.47;;;0.10;;
71166;SDS011;58864;45.928;20.078;2023-04-03T09:00:00;1.90;;;0.20;;
71166;SDS011;58864;45.928;20.078;2023-04-03T09:02:42;2.88;;;0.20;;
71166;SDS011;58864;45.928;20.078;2023-04-03T09:05:33;3.20;;;0.43;;
71166;SDS011;58864;45.928;20.078;2023-04-03T09:11:09;5.07;;;1.07;;
71166;SDS011;58864;45.928;20.078;2023-04-03T09:13:48;3.17;;;0.55;;
71166;SDS011;58864;45.928;20.078;2023-04-03T09:17:00;3.55;;;0.80;;
71166;SDS011;58864;45.928;20.078;2023-04-03T09:22:07;5.22;;;1.33;;
71166;SDS011;58864;45.928;20.078;2023-04-03T09:24:47;5.67;;;0.80;;
71166;SDS011;58864;45.928;20.078;2023-04-03T09:27:14;4.32;;;0.70;;
71166;SDS011;58864;45.928;20.078;2023-04-03T09:29:39;3.95;;;0.80;;
71166;SDS011;58864;45.928;20.078;2023-04-03T09:34:55;2.58;;;0.40;;
71166;SDS011;58864;45.928;20.078;2023-04-03T09:39:59;2.65;;;0.40;;
71166;SDS011;58864;45.928;20.078;2023-04-03T09:42:24;3.72;;;0.50;;
71166;SDS011;58864;45.928;20.078;2023-04-03T09:44:54;2.93;;;0.37;;
71166;SDS011;58864;45.928;20.078;2023-04-03T09:47:26;3.72;;;0.50;;
71166;SDS011;58864;45.928;20.078;2023-04-03T09:50:08;3.25;;;0.55;;
71166;SDS011;58864;45.928;20.078;2023-04-03T09:52:36;3.17;;;0.60;;
71166;SDS011;58864;45.928;20.078;2023-04-03T09:55:06;3.10;;;0.70;;
71166;SDS011;58864;45.928;20.078;2023-04-03T09:57:32;3.10;;;0.50;;
71166;SDS011;58864;45.928;20.078;2023-04-03T09:59:57;3.77;;;0.70;;
71166;SDS011;58864;45.928;20.078;2023-04-03T10:02:39;4.50;;;0.80;;
71166;SDS011;58864;45.928;20.078;2023-04-03T10:05:05;3.97;;;0.70;;
71166;SDS011;58864;45.928;20.078;2023-04-03T10:10:38;4.63;;;0.50;;
71166;SDS011;58864;45.928;20.078;2023-04-03T10:13:04;6.03;;;0.70;;
71166;SDS011;58864;45.928;20.078;2023-04-03T10:15:30;4.40;;;0.73;;
71166;SDS011;58864;45.928;20.078;2023-04-03T10:18:06;3.35;;;0.50;;
71166;SDS011;58864;45.928;20.078;2023-04-03T10:21:03;3.58;;;0.73;;
71166;SDS011;58864;45.928;20.078;2023-04-03T10:23:38;4.18;;;0.90;;
71166;SDS011;58864;45.928;20.078;2023-04-03T10:31:48;3.80;;;0.75;;
71166;SDS011;58864;45.928;20.078;2023-04-03T10:36:52;5.13;;;1.02;;
71166;SDS011;58864;45.928;20.078;2023-04-03T10:45:21;4.43;;;1.17;;
71166;SDS011;58864;45.928;20.078;2023-04-03T10:56:14;5.45;;;1.30;;
71166;SDS011;58864;45.928;20.078;2023-04-03T10:58:26;3.88;;;0.88;;
71166;SDS011;58864;45.928;20.078;2023-04-03T11:00:54;4.55;;;1.08;;
71166;SDS011;58864;45.928;20.078;2023-04-03T11:03:27;3.60;;;0.93;;
71166;SDS011;58864;45.928;20.078;2023-04-03T11:05:55;3.83;;;0.80;;
71166;SDS011;58864;45.928;20.078;2023-04-03T11:09:05;3.90;;;0.82;;
71166;SDS011;58864;45.928;20.078;2023-04-03T11:11:22;3.95;;;0.70;;
71166;SDS011;58864;45.928;20.078;2023-04-03T11:13:52;4.05;;;0.73;;
71166;SDS011;58864;45.928;20.078;2023-04-03T11:16:41;3.83;;;0.85;;
71166;SDS011;58864;45.928;20.078;2023-04-03T11:19:20;2.33;;;0.50;;
71166;SDS011;58864;45.928;20.078;2023-04-03T11:21:52;2.67;;;0.52;;
71166;SDS011;58864;45.928;20.078;2023-04-03T11:24:24;3.08;;;0.63;;
71166;SDS011;58864;45.928;20.078;2023-04-03T11:26:50;3.22;;;0.60;;
71166;SDS011;58864;45.928;20.078;2023-04-03T11:29:18;2.70;;;0.47;;
71166;SDS011;58864;45.928;20.078;2023-04-03T11:34:42;3.78;;;1.00;;
71166;SDS011;58864;45.928;20.078;2023-04-03T11:37:23;3.33;;;0.60;;
71166;SDS011;58864;45.928;20.078;2023-04-03T11:39:54;5.43;;;1.00;;
71166;SDS011;58864;45.928;20.078;2023-04-03T11:42:37;2.70;;;0.50;;
71166;SDS011;58864;45.928;20.078;2023-04-03T11:47:51;4.80;;;0.80;;
71166;SDS011;58864;45.928;20.078;2023-04-03T12:05:53;7.93;;;1.80;;
71166;SDS011;58864;45.928;20.078;2023-04-03T12:13:32;3.28;;;0.60;;
71166;SDS011;58864;45.928;20.078;2023-04-03T12:15:57;3.10;;;0.77;;
71166;SDS011;58864;45.928;20.078;2023-04-03T12:18:43;3.88;;;0.90;;
71166;SDS011;58864;45.928;20.078;2023-04-03T12:21:09;5.83;;;1.50;;
71166;SDS011;58864;45.928;20.078;2023-04-03T12:23:35;3.08;;;0.73;;
71166;SDS011;58864;45.928;20.078;2023-04-03T12:26:03;9.13;;;1.10;;
71166;SDS011;58864;45.928;20.078;2023-04-03T12:28:37;3.95;;;1.00;;
71166;SDS011;58864;45.928;20.078;2023-04-03T12:31:04;4.30;;;0.85;;
71166;SDS011;58864;45.928;20.078;2023-04-03T12:36:47;16.02;;;5.45;;
71166;SDS011;58864;45.928;20.078;2023-04-03T12:42:17;14.23;;;4.25;;
71166;SDS011;58864;45.928;20.078;2023-04-03T12:44:52;9.68;;;2.95;;
71166;SDS011;58864;45.928;20.078;2023-04-03T12:47:29;8.23;;;2.60;;
71166;SDS011;58864;45.928;20.078;2023-04-03T12:49:56;4.38;;;1.20;;
71166;SDS011;58864;45.928;20.078;2023-04-03T12:52:30;5.30;;;1.30;;
71166;SDS011;58864;45.928;20.078;2023-04-03T12:55:02;8.35;;;1.98;;
71166;SDS011;58864;45.928;20.078;2023-04-03T12:57:28;6.30;;;2.53;;
71166;SDS011;58864;45.928;20.078;2023-04-03T12:59:52;5.47;;;1.60;;
71166;SDS011;58864;45.928;20.078;2023-04-03T13:02:19;5.75;;;1.80;;
71166;SDS011;58864;45.928;20.078;2023-04-03T13:04:47;5.80;;;2.07;;
71166;SDS011;58864;45.928;20.078;2023-04-03T13:07:24;5.95;;;1.63;;
71166;SDS011;58864;45.928;20.078;2023-04-03T13:09:56;5.87;;;1.80;;
71166;SDS011;58864;45.928;20.078;2023-04-03T13:12:23;9.60;;;3.13;;
71166;SDS011;58864;45.928;20.078;2023-04-03T13:14:52;9.90;;;2.80;;
71166;SDS011;58864;45.928;20.078;2023-04-03T13:17:18;21.02;;;4.50;;
71166;SDS011;58864;45.928;20.078;2023-04-03T13:19:44;13.43;;;4.27;;
71166;SDS011;58864;45.928;20.078;2023-04-03T13:25:07;8.83;;;3.50;;
71166;SDS011;58864;45.928;20.078;2023-04-03T13:27:34;10.25;;;2.55;;
71166;SDS011;58864;45.928;20.078;2023-04-03T13:30:00;10.38;;;2.58;;
71166;SDS011;58864;45.928;20.078;2023-04-03T13:32:27;9.73;;;2.70;;
71166;SDS011;58864;45.928;20.078;2023-04-03T13:34:53;6.00;;;1.60;;
71166;SDS011;58864;45.928;20.078;2023-04-03T13:37:26;5.72;;;1.90;;
71166;SDS011;58864;45.928;20.078;2023-04-03T13:40:01;7.03;;;2.10;;
71166;SDS011;58864;45.928;20.078;2023-04-03T13:42:32;7.82;;;3.13;;
71166;SDS011;58864;45.928;20.078;2023-04-03T13:47:38;7.82;;;3.20;;
71166;SDS011;58864;45.928;20.078;2023-04-03T13:52:40;4.47;;;1.20;;
71166;SDS011;58864;45.928;20.078;2023-04-03T13:55:18;4.63;;;1.48;;
71166;SDS011;58864;45.928;20.078;2023-04-03T13:57:57;5.28;;;1.30;;
71166;SDS011;58864;45.928;20.078;2023-04-03T14:03:14;5.20;;;1.40;;
71166;SDS011;58864;45.928;20.078;2023-04-03T14:05:50;4.27;;;1.30;;
71166;SDS011;58864;45.928;20.078;2023-04-03T14:08:14;3.50;;;1.00;;
71166;SDS011;58864;45.928;20.078;2023-04-03T14:10:40;4.65;;;2.03;;
71166;SDS011;58864;45.928;20.078;2023-04-03T14:13:04;5.33;;;1.70;;
71166;SDS011;58864;45.928;20.078;2023-04-03T14:15:29;5.00;;;1.13;;
71166;SDS011;58864;45.928;20.078;2023-04-03T14:17:55;5.30;;;1.77;;
71166;SDS011;58864;45.928;20.078;2023-04-03T14:20:21;9.02;;;1.63;;
71166;SDS011;58864;45.928;20.078;2023-04-03T14:22:47;3.88;;;1.00;;
71166;SDS011;58864;45.928;20.078;2023-04-03T14:25:12;5.57;;;1.88;;
71166;SDS011;58864;45.928;20.078;2023-04-03T14:27:38;6.57;;;1.03;;
71166;SDS011;58864;45.928;20.078;2023-04-03T14:30:05;6.53;;;1.85;;
71166;SDS011;58864;45.928;20.078;2023-04-03T14:32:31;12.10;;;4.13;;
71166;SDS011;58864;45.928;20.078;2023-04-03T14:34:56;7.37;;;2.40;;
71166;SDS011;58864;45.928;20.078;2023-04-03T14:37:23;9.32;;;3.00;;
71166;SDS011;58864;45.928;20.078;2023-04-03T14:39:49;8.48;;;2.30;;
71166;SDS011;58864;45.928;20.078;2023-04-03T14:42:16;4.50;;;1.30;;
71166;SDS011;58864;45.928;20.078;2023-04-03T14:44:42;7.18;;;2.28;;
71166;SDS011;58864;45.928;20.078;2023-04-03T14:47:13;19.70;;;8.40;;
71166;SDS011;58864;45.928;20.078;2023-04-03T14:49:40;52.23;;;21.77;;
71166;SDS011;58864;45.928;20.078;2023-04-03T14:52:06;45.95;;;19.25;;
71166;SDS011;58864;45.928;20.078;2023-04-03T14:54:33;23.45;;;10.02;;
71166;SDS011;58864;45.928;20.078;2023-04-03T14:56:58;19.37;;;8.03;;
71166;SDS011;58864;45.928;20.078;2023-04-03T14:59:24;32.63;;;12.80;;
71166;SDS011;58864;45.928;20.078;2023-04-03T15:01:55;18.45;;;7.72;;
71166;SDS011;58864;45.928;20.078;2023-04-03T15:04:20;12.60;;;5.77;;
71166;SDS011;58864;45.928;20.078;2023-04-03T15:06:45;21.13;;;12.75;;
71166;SDS011;58864;45.928;20.078;2023-04-03T15:09:23;12.40;;;8.45;;
71166;SDS011;58864;45.928;20.078;2023-04-03T15:11:50;5.13;;;2.20;;
71166;SDS011;58864;45.928;20.078;2023-04-03T15:14:15;5.78;;;2.05;;
71166;SDS011;58864;45.928;20.078;2023-04-03T15:16:40;6.90;;;1.77;;
71166;SDS011;58864;45.928;20.078;2023-04-03T15:19:05;5.40;;;1.70;;
71166;SDS011;58864;45.928;20.078;2023-04-03T15:21:29;11.00;;;2.42;;
71166;SDS011;58864;45.928;20.078;2023-04-03T15:23:54;9.43;;;3.10;;
71166;SDS011;58864;45.928;20.078;2023-04-03T15:26:18;9.95;;;3.22;;
71166;SDS011;58864;45.928;20.078;2023-04-03T15:28:44;10.33;;;3.50;;
71166;SDS011;58864;45.928;20.078;2023-04-03T15:31:09;10.20;;;4.10;;
71166;SDS011;58864;45.928;20.078;2023-04-03T15:33:34;13.02;;;5.05;;
71166;SDS011;58864;45.928;20.078;2023-04-03T15:35:59;11.90;;;4.57;;
71166;SDS011;58864;45.928;20.078;2023-04-03T15:38:24;7.37;;;2.80;;
71166;SDS011;58864;45.928;20.078;2023-04-03T15:40:49;15.43;;;4.32;;
71166;SDS011;58864;45.928;20.078;2023-04-03T15:43:13;66.63;;;24.40;;
71166;SDS011;58864;45.928;20.078;2023-04-03T15:45:38;21.98;;;8.38;;
71166;SDS011;58864;45.928;20.078;2023-04-03T15:48:03;7.13;;;2.53;;
71166;SDS011;58864;45.928;20.078;2023-04-03T15:50:29;6.22;;;1.80;;
71166;SDS011;58864;45.928;20.078;2023-04-03T15:52:53;6.63;;;2.20;;
71166;SDS011;58864;45.928;20.078;2023-04-03T15:55:19;11.75;;;4.63;;